Time;durP1;ratioP1;P1;durP2;ratioP2;P2;SDS_P1;SDS_P2;PMS_P1;PMS_P2;Temp;Humidity;BMP_temperature;BMP_pressure;BME280_temperature;BME280_humidity;BME280_pressure;Samples;Min_cycle;Max_cycle;Signal;HPM_P1;HPM_P2
2022/07/27 00:00:30;;;;;;;3.90;1.65;;;19.20;99.90;;;;;;4972837;28;20214;-71
2022/07/27 00:02:56;;;;;;;2.60;1.40;;;19.20;99.90;;;;;;4977542;28;20178;-71
2022/07/27 00:05:22;;;;;;;4.07;1.13;;;19.20;99.90;;;;;;4977835;28;20210;-71
2022/07/27 00:07:48;;;;;;;5.32;1.52;;;19.20;99.90;;;;;;4978081;28;20218;-71
2022/07/27 00:10:14;;;;;;;4.22;1.40;;;19.10;99.90;;;;;;4974725;28;20783;-70
2022/07/27 00:12:40;;;;;;;3.47;1.35;;;19.00;99.90;;;;;;4980986;28;20226;-72
2022/07/27 00:15:07;;;;;;;8.35;1.55;;;19.10;99.90;;;;;;4979526;28;20595;-71
2022/07/27 00:17:33;;;;;;;3.90;1.50;;;19.00;99.90;;;;;;4976548;28;20182;-72
2022/07/27 00:19:58;;;;;;;1.95;0.98;;;19.10;99.90;;;;;;4980745;28;20594;-72
2022/07/27 00:22:24;;;;;;;4.35;1.45;;;19.00;99.90;;;;;;4962295;28;20202;-71
2022/07/27 00:24:50;;;;;;;4.57;1.30;;;19.00;99.90;;;;;;4977725;28;20217;-70
2022/07/27 00:27:16;;;;;;;4.15;0.95;;;19.00;99.90;;;;;;4974563;28;20257;-72
2022/07/27 00:29:42;;;;;;;5.05;1.35;;;18.90;99.90;;;;;;4965597;28;20209;-72
2022/07/27 00:32:07;;;;;;;3.20;1.42;;;18.80;99.90;;;;;;4960389;28;20253;-72
2022/07/27 00:34:33;;;;;;;5.65;1.50;;;18.80;99.90;;;;;;4976343;28;20211;-72
2022/07/27 00:36:58;;;;;;;5.15;1.42;;;18.70;99.90;;;;;;4980985;28;20582;-72
2022/07/27 00:39:24;;;;;;;5.25;1.50;;;18.70;99.90;;;;;;4979337;28;20579;-72
2022/07/27 00:41:50;;;;;;;4.55;1.13;;;18.70;99.90;;;;;;4977793;28;20174;-73
2022/07/27 00:44:25;;;;;;;4.05;1.30;;;18.70;99.90;;;;;;4957513;28;20229;-72
2022/07/27 00:46:50;;;;;;;4.65;1.58;;;18.60;99.90;;;;;;4976603;28;20212;-71
2022/07/27 00:49:16;;;;;;;5.75;1.30;;;18.40;99.90;;;;;;4959852;28;20213;-71
2022/07/27 00:51:42;;;;;;;2.58;1.40;;;18.30;99.90;;;;;;4976264;28;20200;-72
2022/07/27 00:54:08;;;;;;;6.72;1.42;;;18.30;99.90;;;;;;4959288;28;20253;-72
2022/07/27 00:56:33;;;;;;;4.78;1.83;;;18.30;99.90;;;;;;4984786;28;20194;-72
2022/07/27 00:58:59;;;;;;;7.75;1.48;;;18.30;99.90;;;;;;4958692;28;20198;-72
2022/07/27 01:01:25;;;;;;;4.95;1.40;;;18.10;99.90;;;;;;4974908;28;20207;-72
2022/07/27 01:03:50;;;;;;;6.22;1.55;;;18.10;99.90;;;;;;4981999;28;20198;-72
2022/07/27 01:06:17;;;;;;;7.25;1.77;;;18.10;99.90;;;;;;4977146;28;20261;-72
2022/07/27 01:08:43;;;;;;;5.80;1.40;;;18.00;99.90;;;;;;4975829;28;20205;-72
2022/07/27 01:11:10;;;;;;;4.95;1.33;;;18.00;99.90;;;;;;4974299;28;20261;-72
2022/07/27 01:13:36;;;;;;;6.38;1.52;;;18.00;99.90;;;;;;4981763;28;20213;-73
2022/07/27 01:16:05;;;;;;;4.55;1.48;;;18.00;99.90;;;;;;4971619;28;20202;-72
2022/07/27 01:18:36;;;;;;;4.32;1.80;;;18.00;99.90;;;;;;4974701;28;20715;-72
2022/07/27 01:21:04;;;;;;;3.35;1.10;;;17.90;99.90;;;;;;4963033;28;20233;-73
2022/07/27 01:23:33;;;;;;;7.90;1.33;;;17.90;99.90;;;;;;4978533;28;20253;-73
2022/07/27 01:25:59;;;;;;;7.38;1.65;;;17.80;99.90;;;;;;4957233;28;20268;-73
2022/07/27 01:28:25;;;;;;;5.07;1.33;;;17.80;99.90;;;;;;4976725;28;20218;-73
2022/07/27 01:30:51;;;;;;;4.00;1.35;;;17.70;99.90;;;;;;4979991;28;20201;-72
2022/07/27 01:33:17;;;;;;;4.53;1.58;;;17.70;99.90;;;;;;4975769;28;20233;-72
2022/07/27 01:35:42;;;;;;;6.18;1.13;;;17.70;99.90;;;;;;4967612;28;20683;-73
2022/07/27 01:38:10;;;;;;;5.03;1.40;;;17.70;99.90;;;;;;4979256;28;20269;-72
2022/07/27 01:40:36;;;;;;;5.63;1.48;;;17.60;99.90;;;;;;4976825;28;20567;-72
2022/07/27 01:43:04;;;;;;;5.40;1.38;;;17.60;99.90;;;;;;4974364;28;20206;-73
2022/07/27 01:45:29;;;;;;;3.80;1.30;;;17.40;99.90;;;;;;4980937;28;20749;-73
2022/07/27 01:47:55;;;;;;;5.28;1.55;;;17.40;99.90;;;;;;4961755;28;20201;-72
2022/07/27 01:50:20;;;;;;;6.07;1.52;;;17.40;99.90;;;;;;4975760;28;20229;-71
2022/07/27 01:52:46;;;;;;;3.75;1.52;;;17.40;99.90;;;;;;4973418;28;20863;-72
2022/07/27 01:55:12;;;;;;;2.63;1.08;;;17.30;99.90;;;;;;4978464;28;20202;-72
2022/07/27 01:57:37;;;;;;;4.15;1.65;;;17.30;99.90;;;;;;4978183;28;20210;-71
2022/07/27 02:00:07;;;;;;;4.93;1.90;;;17.30;99.90;;;;;;4973813;28;20179;-72
2022/07/27 02:02:33;;;;;;;1.90;1.02;;;17.20;99.90;;;;;;4978063;28;20166;-72
2022/07/27 02:04:58;;;;;;;3.17;1.08;;;17.20;99.90;;;;;;4978215;28;20257;-72
2022/07/27 02:07:24;;;;;;;4.28;1.25;;;17.20;99.90;;;;;;4975518;28;20218;-72
2022/07/27 02:09:49;;;;;;;4.45;1.30;;;17.20;99.90;;;;;;4972645;28;20618;-72
2022/07/27 02:14:59;;;;;;;9.73;1.58;;;17.00;99.90;;;;;;4976464;28;20549;-72
2022/07/27 02:17:25;;;;;;;5.68;1.65;;;16.90;99.90;;;;;;4974646;28;20190;-72
2022/07/27 02:19:51;;;;;;;3.35;1.33;;;16.90;99.90;;;;;;4978567;28;20267;-72
2022/07/27 02:22:16;;;;;;;3.47;1.15;;;16.80;99.90;;;;;;4977075;28;20222;-72
2022/07/27 02:24:42;;;;;;;4.25;1.58;;;16.90;99.90;;;;;;4958615;28;20209;-72
2022/07/27 02:27:07;;;;;;;3.80;1.35;;;16.80;99.90;;;;;;4972239;28;20229;-72
2022/07/27 02:29:33;;;;;;;5.90;1.50;;;16.80;99.90;;;;;;4979646;28;20205;-72
2022/07/27 02:31:58;;;;;;;3.28;1.45;;;16.80;99.90;;;;;;4976276;28;20217;-72
2022/07/27 02:34:24;;;;;;;4.35;1.50;;;16.80;99.90;;;;;;4974024;28;20345;-72
2022/07/27 02:36:49;;;;;;;6.13;1.63;;;16.70;99.90;;;;;;4978629;28;20698;-73
2022/07/27 02:39:15;;;;;;;4.45;1.40;;;16.70;99.90;;;;;;4976580;28;20286;-72
2022/07/27 02:41:41;;;;;;;2.95;0.98;;;16.70;99.90;;;;;;4975729;28;20243;-72
2022/07/27 02:44:06;;;;;;;5.20;1.30;;;16.60;99.90;;;;;;4972462;28;20214;-72
2022/07/27 02:46:32;;;;;;;3.83;1.30;;;16.60;99.90;;;;;;4979375;28;20594;-72
2022/07/27 02:48:57;;;;;;;7.57;1.77;;;16.50;99.90;;;;;;4968304;28;20847;-72
2022/07/27 02:51:23;;;;;;;6.70;1.58;;;16.50;99.90;;;;;;4968262;28;20582;-72
2022/07/27 02:53:49;;;;;;;5.20;1.33;;;16.60;99.90;;;;;;4968080;28;20216;-71
2022/07/27 02:56:14;;;;;;;4.68;1.38;;;16.40;99.90;;;;;;4966186;28;20253;-68
2022/07/27 02:58:40;;;;;;;6.45;1.65;;;16.50;99.90;;;;;;4965782;28;20233;-69
2022/07/27 03:01:06;;;;;;;2.20;1.20;;;16.50;99.90;;;;;;4970290;28;20641;-69
2022/07/27 03:03:31;;;;;;;3.58;1.38;;;16.50;99.90;;;;;;4953985;28;20699;-69
2022/07/27 03:05:57;;;;;;;4.63;1.50;;;16.50;99.90;;;;;;4948382;28;20222;-70
2022/07/27 03:08:22;;;;;;;6.47;1.77;;;16.50;99.90;;;;;;4988636;23;20316;-73
2022/07/27 03:10:48;;;;;;;7.20;1.67;;;16.60;99.90;;;;;;4988157;28;20210;-73
2022/07/27 03:13:13;;;;;;;5.88;1.95;;;16.50;99.90;;;;;;4983978;28;20212;-72
2022/07/27 03:15:39;;;;;;;3.95;1.20;;;16.50;99.90;;;;;;4979491;28;20221;-72
2022/07/27 03:18:05;;;;;;;2.83;1.13;;;16.40;99.90;;;;;;4961376;28;20213;-72
2022/07/27 03:20:31;;;;;;;2.88;1.38;;;16.50;99.90;;;;;;4964583;28;20178;-74
2022/07/27 03:22:56;;;;;;;4.65;1.50;;;16.50;99.90;;;;;;4965592;28;20269;-72
2022/07/27 03:25:22;;;;;;;4.43;1.33;;;16.40;99.90;;;;;;4970041;28;20207;-71
2022/07/27 03:27:47;;;;;;;3.65;1.50;;;16.50;99.90;;;;;;4963325;28;20735;-72
2022/07/27 03:30:13;;;;;;;5.30;1.52;;;16.60;99.90;;;;;;4965183;28;20206;-74
2022/07/27 03:32:39;;;;;;;5.18;1.95;;;16.60;99.90;;;;;;4948880;28;20210;-73
2022/07/27 03:35:05;;;;;;;5.43;2.60;;;16.50;99.90;;;;;;4952571;28;20309;-72
2022/07/27 03:37:31;;;;;;;7.07;1.80;;;16.50;99.90;;;;;;4962557;28;20207;-74
2022/07/27 03:39:56;;;;;;;4.85;1.58;;;16.50;99.90;;;;;;4966199;28;20438;-72
2022/07/27 03:42:22;;;;;;;5.65;1.38;;;16.50;99.90;;;;;;4976317;28;20212;-72
2022/07/27 03:44:47;;;;;;;4.97;1.45;;;16.50;99.90;;;;;;4953349;28;20196;-72
2022/07/27 03:47:13;;;;;;;3.95;1.70;;;16.50;99.90;;;;;;4969128;28;20205;-71
2022/07/27 03:49:39;;;;;;;3.83;1.40;;;16.50;99.90;;;;;;4950939;28;20301;-73
2022/07/27 03:52:04;;;;;;;4.63;1.20;;;16.40;99.90;;;;;;4973245;28;20904;-72
2022/07/27 03:54:30;;;;;;;3.22;1.58;;;16.50;99.90;;;;;;4965923;28;20207;-73
2022/07/27 03:56:56;;;;;;;4.05;1.40;;;16.50;99.90;;;;;;4968283;28;20257;-72
2022/07/27 03:59:21;;;;;;;3.85;1.13;;;16.50;99.90;;;;;;4954144;28;20190;-72
2022/07/27 04:01:47;;;;;;;3.20;1.33;;;16.40;99.90;;;;;;4970018;28;20278;-72
2022/07/27 04:04:12;;;;;;;3.50;1.10;;;16.30;99.90;;;;;;4968403;28;20213;-72
2022/07/27 04:06:38;;;;;;;6.78;1.50;;;16.40;99.90;;;;;;4968417;28;20214;-72
2022/07/27 04:09:03;;;;;;;5.85;1.35;;;16.50;99.90;;;;;;4972361;28;20287;-73
2022/07/27 04:11:29;;;;;;;5.53;1.13;;;16.60;99.90;;;;;;4970142;28;20769;-71
2022/07/27 04:13:55;;;;;;;4.55;1.30;;;16.60;99.90;;;;;;4950258;28;20302;-72
2022/07/27 04:16:20;;;;;;;4.15;1.17;;;16.60;99.90;;;;;;4967723;28;20699;-72
2022/07/27 04:18:46;;;;;;;3.08;1.13;;;16.70;99.90;;;;;;4966858;28;20245;-73
2022/07/27 04:21:12;;;;;;;3.25;1.00;;;16.80;99.90;;;;;;4967707;28;20218;-72
2022/07/27 04:23:37;;;;;;;5.85;1.48;;;16.80;99.90;;;;;;4968343;28;20187;-72
2022/07/27 04:26:03;;;;;;;2.42;1.13;;;16.90;99.90;;;;;;4968412;28;20632;-73
2022/07/27 04:28:28;;;;;;;3.75;1.20;;;17.00;99.90;;;;;;4968571;28;20210;-72
2022/07/27 04:30:54;;;;;;;8.50;1.73;;;17.00;99.90;;;;;;4964986;28;20207;-73
2022/07/27 04:33:19;;;;;;;4.82;1.52;;;17.10;99.90;;;;;;4951931;28;20242;-72
2022/07/27 04:35:45;;;;;;;5.57;1.50;;;17.60;99.90;;;;;;4969084;28;20194;-73
2022/07/27 04:38:10;;;;;;;4.32;1.50;;;18.20;99.90;;;;;;4967268;28;20202;-73
2022/07/27 04:40:36;;;;;;;5.65;1.45;;;18.90;99.90;;;;;;4966269;28;20218;-73
2022/07/27 04:43:03;;;;;;;5.95;1.20;;;19.80;99.90;;;;;;4971915;28;20206;-73
2022/07/27 04:45:29;;;;;;;5.70;1.38;;;21.10;99.90;;;;;;4968406;28;20363;-72
2022/07/27 04:47:55;;;;;;;3.72;1.58;;;21.00;99.90;;;;;;4965484;28;20306;-73
2022/07/27 04:50:21;;;;;;;5.95;1.30;;;23.20;99.90;;;;;;4965722;28;20179;-77
2022/07/27 04:52:47;;;;;;;3.80;1.58;;;25.30;99.90;;;;;;4972767;28;20233;-75
2022/07/27 04:55:12;;;;;;;3.70;1.45;;;26.50;99.90;;;;;;4966923;28;20621;-74
2022/07/27 04:57:40;;;;;;;4.45;1.30;;;27.40;99.90;;;;;;4966400;28;20269;-74
2022/07/27 05:00:07;;;;;;;7.68;1.88;;;28.30;99.90;;;;;;4956913;28;20175;-74
2022/07/27 05:02:33;;;;;;;4.32;1.70;;;29.10;99.90;;;;;;4973589;28;20269;-75
2022/07/27 05:04:59;;;;;;;3.05;1.50;;;28.60;99.90;;;;;;4973116;28;20286;-74
2022/07/27 05:07:25;;;;;;;6.63;1.80;;;28.10;99.90;;;;;;4973265;28;20214;-74
2022/07/27 05:09:51;;;;;;;6.57;1.98;;;29.20;99.80;;;;;;4972942;28;20257;-73
2022/07/27 05:12:16;;;;;;;4.53;1.70;;;29.70;97.30;;;;;;4972896;28;20678;-74
2022/07/27 05:14:42;;;;;;;3.83;1.67;;;28.50;97.00;;;;;;4966671;28;20667;-76
2022/07/27 05:17:07;;;;;;;4.38;1.45;;;27.60;98.50;;;;;;4955789;28;20244;-73
2022/07/27 05:19:33;;;;;;;6.05;1.52;;;26.90;99.20;;;;;;4972678;28;20214;-74
2022/07/27 05:21:59;;;;;;;7.35;1.60;;;25.70;99.90;;;;;;4973089;28;20709;-74
2022/07/27 05:24:25;;;;;;;4.72;1.70;;;24.40;99.90;;;;;;4973153;28;20259;-74
2022/07/27 05:26:51;;;;;;;5.82;1.65;;;23.90;99.90;;;;;;4972968;28;20178;-75
2022/07/27 05:29:17;;;;;;;4.47;1.33;;;23.20;99.90;;;;;;4973203;28;20202;-74
2022/07/27 05:31:43;;;;;;;5.35;1.70;;;23.00;99.90;;;;;;4972425;28;20257;-73
2022/07/27 05:34:08;;;;;;;6.32;1.52;;;23.70;99.90;;;;;;4972770;28;20233;-74
2022/07/27 05:36:34;;;;;;;4.40;1.40;;;23.80;99.90;;;;;;4972634;28;20230;-74
2022/07/27 05:38:59;;;;;;;4.13;1.30;;;24.90;99.90;;;;;;4972288;28;20202;-74
2022/07/27 05:41:25;;;;;;;6.60;1.27;;;26.00;99.90;;;;;;4973123;28;20763;-74
2022/07/27 05:43:53;;;;;;;5.80;1.67;;;27.50;99.90;;;;;;4972112;28;20341;-73
2022/07/27 05:46:19;;;;;;;4.35;1.48;;;27.30;99.90;;;;;;4951336;28;20249;-74
2022/07/27 05:48:44;;;;;;;4.57;1.25;;;28.00;99.90;;;;;;4950397;28;20285;-75
2022/07/27 05:51:10;;;;;;;5.75;1.63;;;28.00;99.90;;;;;;4972442;28;20210;-74
2022/07/27 05:53:36;;;;;;;4.35;1.85;;;27.60;99.90;;;;;;4955617;28;20166;-74
2022/07/27 05:56:02;;;;;;;4.35;1.88;;;28.10;99.90;;;;;;4972359;28;20194;-73
2022/07/27 05:58:28;;;;;;;7.13;1.98;;;28.40;99.90;;;;;;4954383;28;20272;-74
2022/07/27 06:00:55;;;;;;;6.70;1.65;;;29.00;98.90;;;;;;4955189;28;20202;-73
2022/07/27 06:03:21;;;;;;;3.80;1.30;;;29.60;97.40;;;;;;4971880;28;20614;-73
2022/07/27 06:05:46;;;;;;;4.80;1.75;;;29.80;96.50;;;;;;4972322;28;20178;-73
2022/07/27 06:08:12;;;;;;;9.00;1.90;;;30.80;95.50;;;;;;4971925;28;20577;-73
2022/07/27 06:10:39;;;;;;;5.03;1.30;;;30.70;94.00;;;;;;4963543;28;20206;-73
2022/07/27 06:13:08;;;;;;;4.55;1.55;;;30.90;93.70;;;;;;4972153;28;20595;-73
2022/07/27 06:15:35;;;;;;;3.47;1.60;;;31.10;92.90;;;;;;4970553;28;20336;-73
2022/07/27 06:18:02;;;;;;;5.68;1.85;;;31.20;92.20;;;;;;4954962;28;20204;-73
2022/07/27 06:20:29;;;;;;;5.22;1.17;;;31.20;91.30;;;;;;4968879;28;20181;-73
2022/07/27 06:22:58;;;;;;;71.68;5.90;;;31.50;90.80;;;;;;4972211;28;20317;-73
2022/07/27 06:25:25;;;;;;;16.73;2.22;;;32.10;90.10;;;;;;4950237;28;20214;-73
2022/07/27 06:27:52;;;;;;;6.57;1.90;;;32.90;87.70;;;;;;4965133;28;20369;-73
2022/07/27 06:30:18;;;;;;;14.75;4.15;;;32.90;85.20;;;;;;4954637;28;20263;-74
2022/07/27 06:32:45;;;;;;;7.20;1.95;;;33.20;83.60;;;;;;4970076;28;20662;-74
2022/07/27 06:35:11;;;;;;;8.15;3.45;;;33.50;81.90;;;;;;4971625;28;20234;-74
2022/07/27 06:37:42;;;;;;;5.05;1.88;;;33.60;81.70;;;;;;4971254;28;20209;-73
2022/07/27 06:40:10;;;;;;;4.25;1.67;;;33.50;80.50;;;;;;4950025;28;20267;-74
2022/07/27 06:42:36;;;;;;;6.78;1.65;;;32.50;81.70;;;;;;4971479;28;20737;-74
2022/07/27 06:45:02;;;;;;;7.95;1.90;;;31.30;83.50;;;;;;4971229;28;20181;-73
2022/07/27 06:47:27;;;;;;;9.95;1.70;;;30.80;85.80;;;;;;4953794;28;20200;-73
2022/07/27 06:49:53;;;;;;;3.75;1.60;;;30.10;85.80;;;;;;4971431;28;20205;-73
2022/07/27 06:52:19;;;;;;;5.65;1.83;;;29.10;88.90;;;;;;4953847;28;20206;-73
2022/07/27 06:54:44;;;;;;;3.78;1.70;;;28.10;90.50;;;;;;4971430;28;20353;-73
2022/07/27 06:57:10;;;;;;;5.10;1.73;;;27.50;91.60;;;;;;4968831;28;20897;-74
2022/07/27 06:59:35;;;;;;;4.88;1.88;;;26.80;92.20;;;;;;4971027;28;20277;-74
2022/07/27 07:02:01;;;;;;;4.25;1.63;;;26.30;92.90;;;;;;4971528;28;20260;-75
2022/07/27 07:04:27;;;;;;;5.05;1.40;;;26.20;93.60;;;;;;4971051;28;20757;-73
2022/07/27 07:06:52;;;;;;;4.13;1.40;;;26.10;94.00;;;;;;4971755;28;20217;-74
2022/07/27 07:09:18;;;;;;;8.57;2.50;;;26.20;94.00;;;;;;4969642;28;20214;-74
2022/07/27 07:11:44;;;;;;;4.22;1.65;;;25.80;94.40;;;;;;4968687;28;20295;-73
2022/07/27 07:14:09;;;;;;;3.35;1.50;;;25.30;95.10;;;;;;4966735;28;20210;-73
2022/07/27 07:16:35;;;;;;;10.00;1.88;;;25.30;95.70;;;;;;4973903;28;20209;-73
2022/07/27 07:19:00;;;;;;;3.83;1.70;;;24.90;95.60;;;;;;4974931;28;20209;-75
2022/07/27 07:21:26;;;;;;;4.30;1.45;;;25.00;96.00;;;;;;4958903;28;20234;-74
2022/07/27 07:23:51;;;;;;;5.90;1.52;;;24.80;96.00;;;;;;4975344;28;20178;-73
2022/07/27 07:26:17;;;;;;;4.47;1.52;;;24.70;96.40;;;;;;4975639;28;20181;-74
2022/07/27 07:28:43;;;;;;;3.42;1.25;;;25.20;96.50;;;;;;4973927;28;20242;-73
2022/07/27 07:31:08;;;;;;;1.85;1.10;;;25.60;96.30;;;;;;4971991;28;20268;-75
2022/07/27 07:33:34;;;;;;;3.53;1.33;;;25.50;95.70;;;;;;4957996;28;20233;-74
2022/07/27 07:35:59;;;;;;;3.10;1.20;;;25.60;95.80;;;;;;4977033;28;20177;-74
2022/07/27 07:38:25;;;;;;;5.70;1.20;;;26.60;94.60;;;;;;4974781;28;20202;-75
2022/07/27 07:40:51;;;;;;;2.17;1.40;;;27.20;94.00;;;;;;4974961;28;20211;-73
2022/07/27 07:43:17;;;;;;;4.60;1.90;;;27.80;92.90;;;;;;4975229;28;20688;-74
2022/07/27 07:45:43;;;;;;;3.28;1.10;;;27.30;92.30;;;;;;4974771;28;20209;-75
2022/07/27 07:48:10;;;;;;;4.40;1.67;;;27.20;92.30;;;;;;4976870;28;20319;-75
2022/07/27 07:50:36;;;;;;;2.45;1.05;;;26.70;92.90;;;;;;4956442;28;20590;-74
2022/07/27 07:53:01;;;;;;;4.78;1.35;;;26.30;94.00;;;;;;4957408;28;20264;-74
2022/07/27 07:55:28;;;;;;;4.82;1.15;;;25.70;94.30;;;;;;4974376;28;20294;-74
2022/07/27 07:57:54;;;;;;;4.45;1.67;;;25.20;95.20;;;;;;4974456;28;20661;-73
2022/07/27 08:00:21;;;;;;;3.08;1.30;;;24.20;95.70;;;;;;4974779;28;20709;-73
2022/07/27 08:02:50;;;;;;;6.72;3.10;;;23.60;96.30;;;;;;4974698;28;20166;-73
2022/07/27 08:05:16;;;;;;;2.47;1.23;;;23.10;97.80;;;;;;4959521;28;20190;-74
2022/07/27 08:07:42;;;;;;;7.28;1.50;;;22.60;98.40;;;;;;4974111;28;20299;-74
2022/07/27 08:10:10;;;;;;;4.28;1.30;;;22.30;99.10;;;;;;4974404;28;20738;-74
2022/07/27 08:12:41;;;;;;;2.92;1.00;;;22.00;99.70;;;;;;4974561;28;20206;-74
2022/07/27 08:15:08;;;;;;;4.72;1.20;;;21.70;99.90;;;;;;4970821;28;20284;-74
2022/07/27 08:17:33;;;;;;;3.78;1.27;;;21.60;99.90;;;;;;4975046;28;20639;-73
2022/07/27 08:19:59;;;;;;;3.92;1.15;;;21.10;99.90;;;;;;4974056;28;20216;-74
2022/07/27 08:22:25;;;;;;;3.05;0.80;;;21.40;99.90;;;;;;4973670;28;20222;-75
2022/07/27 08:24:50;;;;;;;6.90;0.98;;;21.90;99.90;;;;;;4974312;28;20194;-73
2022/07/27 08:27:16;;;;;;;2.47;1.15;;;22.20;99.90;;;;;;4973118;28;20805;-74
2022/07/27 08:29:42;;;;;;;3.88;1.23;;;22.60;99.90;;;;;;4973369;28;20237;-73
2022/07/27 08:32:07;;;;;;;4.90;1.00;;;23.30;99.90;;;;;;4973791;28;20253;-74
2022/07/27 08:34:33;;;;;;;3.38;1.00;;;23.70;99.60;;;;;;4974283;28;20236;-74
2022/07/27 08:36:58;;;;;;;4.32;1.02;;;23.50;98.50;;;;;;4973363;28;20209;-74
2022/07/27 08:39:24;;;;;;;2.35;1.05;;;24.10;97.50;;;;;;4957148;28;20217;-74
2022/07/27 08:41:52;;;;;;;3.72;1.17;;;24.40;96.20;;;;;;4971950;28;20190;-76
2022/07/27 08:44:22;;;;;;;2.90;1.00;;;24.30;96.40;;;;;;4973756;28;20249;-76
2022/07/27 08:46:49;;;;;;;2.28;1.30;;;24.00;96.90;;;;;;4973981;28;20202;-76
2022/07/27 08:49:15;;;;;;;2.67;1.33;;;23.50;98.10;;;;;;4973518;28;20206;-73
2022/07/27 08:51:41;;;;;;;6.60;1.95;;;23.30;99.00;;;;;;4973274;28;20214;-75
2022/07/27 08:54:08;;;;;;;3.13;1.08;;;23.00;99.00;;;;;;4973648;28;20234;-73
2022/07/27 08:56:34;;;;;;;3.38;1.00;;;22.80;99.20;;;;;;4974229;28;20182;-74
2022/07/27 08:58:59;;;;;;;4.00;0.82;;;22.40;99.60;;;;;;4973115;28;20584;-73
2022/07/27 09:01:26;;;;;;;3.83;0.90;;;22.30;99.80;;;;;;4973437;28;20217;-75
2022/07/27 09:03:52;;;;;;;2.08;0.70;;;22.70;99.90;;;;;;4955928;28;20221;-74
2022/07/27 09:06:44;;;;;;;2.80;0.98;;;23.10;99.30;;;;;;4973381;28;20218;-75
2022/07/27 09:09:16;;;;;;;2.50;1.10;;;25.00;97.70;;;;;;4970225;28;20219;-73
2022/07/27 09:11:42;;;;;;;2.65;1.08;;;25.80;95.30;;;;;;4972916;28;20190;-72
2022/07/27 09:16:41;;;;;;;5.03;1.40;;;26.30;93.10;;;;;;4971516;28;20715;-74
2022/07/27 09:19:08;;;;;;;3.78;1.23;;;25.80;93.70;;;;;;4975363;28;20202;-75
2022/07/27 09:21:36;;;;;;;2.78;1.13;;;25.40;94.80;;;;;;4969991;28;20221;-74
2022/07/27 09:24:10;;;;;;;3.42;1.35;;;25.00;95.10;;;;;;4970754;28;20183;-75
2022/07/27 09:26:37;;;;;;;3.80;1.35;;;24.50;95.70;;;;;;4963236;28;20218;-75
2022/07/27 09:29:08;;;;;;;3.70;1.88;;;23.70;96.80;;;;;;4967037;28;20301;-75
2022/07/27 09:31:40;;;;;;;4.43;1.23;;;23.00;98.40;;;;;;4967390;28;20256;-74
2022/07/27 09:34:06;;;;;;;12.13;3.00;;;23.00;98.30;;;;;;4967124;28;20566;-73
2022/07/27 09:36:31;;;;;;;6.05;1.63;;;23.10;99.90;;;;;;4970187;28;20282;-71
2022/07/27 09:39:04;;;;;;;8.95;1.90;;;23.00;99.90;;;;;;4964431;28;20179;-72
2022/07/27 09:41:44;;;;;;;6.00;1.95;;;23.00;99.90;;;;;;4964168;28;20185;-73
2022/07/27 09:44:10;;;;;;;8.52;1.73;;;22.90;99.90;;;;;;4969971;28;20205;-72
2022/07/27 09:46:39;;;;;;;3.33;1.52;;;22.70;99.90;;;;;;4952857;28;20230;-72
2022/07/27 09:49:24;;;;;;;4.35;1.38;;;22.90;99.90;;;;;;4968292;28;20222;-73
2022/07/27 09:51:49;;;;;;;4.43;1.20;;;22.80;99.90;;;;;;4970362;28;20214;-71
2022/07/27 09:54:15;;;;;;;3.67;1.25;;;22.70;99.40;;;;;;4955023;28;20210;-71
2022/07/27 09:56:41;;;;;;;5.97;1.45;;;22.80;99.70;;;;;;4964432;28;20532;-71
2022/07/27 09:59:07;;;;;;;3.60;1.73;;;22.80;99.50;;;;;;4954329;28;20206;-70
2022/07/27 10:01:36;;;;;;;4.93;1.30;;;22.90;98.50;;;;;;4970915;28;20793;-72
2022/07/27 10:04:04;;;;;;;5.70;1.40;;;23.00;99.20;;;;;;4954791;28;20202;-71
2022/07/27 10:06:29;;;;;;;5.90;1.35;;;23.10;98.50;;;;;;4966241;28;20214;-73
2022/07/27 10:08:57;;;;;;;10.52;5.32;;;22.90;98.60;;;;;;4969642;28;20225;-71
2022/07/27 10:11:23;;;;;;;3.50;1.38;;;23.00;98.90;;;;;;4971393;28;20163;-71
2022/07/27 10:13:51;;;;;;;4.60;1.80;;;23.00;98.70;;;;;;4966699;28;20578;-70
2022/07/27 10:16:18;;;;;;;7.20;1.65;;;23.40;98.70;;;;;;4968688;28;20590;-70
2022/07/27 10:19:02;;;;;;;5.78;1.48;;;23.60;98.80;;;;;;4953188;28;20210;-70
2022/07/27 10:21:28;;;;;;;4.50;1.30;;;24.00;98.30;;;;;;4961843;28;20217;-70
2022/07/27 10:24:05;;;;;;;3.17;1.33;;;24.40;98.40;;;;;;4966645;28;20637;-69
2022/07/27 10:26:40;;;;;;;4.55;1.20;;;24.10;98.00;;;;;;4967561;28;20197;-70
2022/07/27 10:29:26;;;;;;;4.53;1.52;;;24.00;97.80;;;;;;4965948;28;20554;-70
2022/07/27 10:31:59;;;;;;;3.78;1.30;;;24.30;97.90;;;;;;4967441;28;20195;-70
2022/07/27 10:34:37;;;;;;;4.72;1.50;;;24.30;97.20;;;;;;4968210;28;20711;-70
2022/07/27 10:37:13;;;;;;;2.83;1.20;;;24.10;97.40;;;;;;4967967;28;20710;-70
2022/07/27 10:39:44;;;;;;;5.32;1.27;;;23.60;97.50;;;;;;4964392;28;20336;-70
2022/07/27 10:42:29;;;;;;;3.92;2.30;;;23.50;97.90;;;;;;4968460;28;20265;-69
2022/07/27 10:45:05;;;;;;;5.90;1.80;;;23.90;98.30;;;;;;4963780;28;20195;-69
2022/07/27 10:47:51;;;;;;;3.63;1.55;;;24.10;98.30;;;;;;4965361;28;20225;-69
2022/07/27 10:50:16;;;;;;;7.07;1.95;;;24.10;98.10;;;;;;4968172;28;20222;-69
2022/07/27 10:52:54;;;;;;;3.60;1.60;;;24.10;97.80;;;;;;4969781;28;20218;-70
2022/07/27 10:55:29;;;;;;;10.88;1.48;;;23.90;96.90;;;;;;4961251;28;20217;-70
2022/07/27 10:58:15;;;;;;;76.32;7.70;;;23.90;97.40;;;;;;4965757;28;20210;-71
2022/07/27 11:00:50;;;;;;;7.72;1.52;;;23.80;97.40;;;;;;4956903;28;20261;-69
2022/07/27 11:03:32;;;;;;;16.27;2.45;;;23.40;97.30;;;;;;4966836;28;20214;-71
2022/07/27 11:06:06;;;;;;;7.05;1.50;;;23.30;98.10;;;;;;4965591;28;20643;-72
2022/07/27 11:08:43;;;;;;;11.13;2.20;;;23.50;98.80;;;;;;4966201;28;20621;-70
2022/07/27 11:11:13;;;;;;;3.95;1.67;;;23.70;99.00;;;;;;4967070;28;20197;-71
2022/07/27 11:13:39;;;;;;;7.35;1.60;;;23.80;98.90;;;;;;4965726;28;20766;-71
2022/07/27 11:16:08;;;;;;;7.60;1.83;;;24.10;98.60;;;;;;4967946;28;20218;-71
2022/07/27 11:18:35;;;;;;;3.92;1.42;;;24.10;98.60;;;;;;4971949;28;20236;-69
2022/07/27 11:21:20;;;;;;;5.90;1.13;;;23.80;98.40;;;;;;4954615;28;20636;-70
2022/07/27 11:23:51;;;;;;;4.75;1.15;;;23.90;98.50;;;;;;4972535;28;20204;-69
2022/07/27 11:26:17;;;;;;;3.78;1.20;;;24.20;98.00;;;;;;4972139;28;20675;-70
2022/07/27 11:28:43;;;;;;;6.88;1.38;;;24.20;98.10;;;;;;4965113;28;20250;-70
2022/07/27 11:31:12;;;;;;;7.40;1.45;;;24.30;98.30;;;;;;4965975;28;20201;-69
2022/07/27 11:33:49;;;;;;;19.65;2.67;;;24.00;97.90;;;;;;4966269;28;20214;-69
2022/07/27 11:36:14;;;;;;;4.53;1.30;;;24.00;97.30;;;;;;4968191;28;20225;-69
2022/07/27 11:38:52;;;;;;;3.90;1.60;;;23.60;97.70;;;;;;4967757;28;20248;-69
2022/07/27 11:41:22;;;;;;;2.92;1.60;;;23.50;98.30;;;;;;4970381;28;20210;-69
2022/07/27 11:43:48;;;;;;;3.70;1.38;;;23.60;98.60;;;;;;4970995;28;20244;-69
2022/07/27 11:46:15;;;;;;;4.53;1.42;;;23.70;98.40;;;;;;4970927;28;20242;-69
2022/07/27 11:49:05;;;;;;;2.20;1.08;;;23.60;97.70;;;;;;4965889;28;20231;-71
2022/07/27 11:51:32;;;;;;;10.48;2.10;;;23.30;98.50;;;;;;4946531;28;20696;-67
2022/07/27 11:54:03;;;;;;;4.25;1.65;;;23.10;98.10;;;;;;4967154;28;20198;-67
2022/07/27 11:56:31;;;;;;;4.60;1.73;;;23.10;98.20;;;;;;4953013;28;20249;-68
2022/07/27 11:59:06;;;;;;;4.15;1.58;;;23.40;98.10;;;;;;4966401;28;20230;-66
2022/07/27 12:01:34;;;;;;;5.68;1.67;;;23.10;97.70;;;;;;4950106;28;20604;-67
2022/07/27 12:04:18;;;;;;;3.25;1.42;;;23.50;97.90;;;;;;4968087;28;20314;-66
2022/07/27 12:07:04;;;;;;;7.25;1.45;;;23.60;97.70;;;;;;4968206;28;20298;-69
2022/07/27 12:09:36;;;;;;;5.68;1.45;;;23.90;97.40;;;;;;4969921;28;20221;-69
2022/07/27 12:12:17;;;;;;;4.40;1.38;;;23.90;96.50;;;;;;4968182;28;20184;-69
2022/07/27 12:14:53;;;;;;;5.35;1.70;;;23.80;96.40;;;;;;4967885;28;20211;-69
2022/07/27 12:17:37;;;;;;;6.05;1.92;;;23.50;96.90;;;;;;4972563;28;20282;-68
2022/07/27 12:20:08;;;;;;;3.38;1.80;;;23.70;96.90;;;;;;4970997;28;20261;-69
2022/07/27 12:22:45;;;;;;;3.83;2.00;;;23.80;96.60;;;;;;4955112;28;20229;-69
2022/07/27 12:25:16;;;;;;;4.28;1.75;;;23.80;96.30;;;;;;4969207;28;20213;-69
2022/07/27 12:27:56;;;;;;;6.55;2.72;;;23.80;96.50;;;;;;4970435;28;20222;-68
2022/07/27 12:30:32;;;;;;;3.03;2.20;;;23.50;96.90;;;;;;4965364;28;20257;-69
2022/07/27 12:32:59;;;;;;;2.97;1.58;;;23.50;97.00;;;;;;4965501;28;20574;-68
2022/07/27 12:35:32;;;;;;;3.38;1.30;;;23.30;96.70;;;;;;4973056;28;20198;-69
2022/07/27 12:38:01;;;;;;;5.57;2.00;;;23.10;97.20;;;;;;4967499;28;20203;-67
2022/07/27 12:40:28;;;;;;;3.92;1.90;;;23.40;96.90;;;;;;4968416;28;20234;-68
2022/07/27 12:43:02;;;;;;;3.97;1.38;;;23.10;97.30;;;;;;4971682;28;20589;-68
2022/07/27 12:45:33;;;;;;;3.80;1.00;;;23.30;97.10;;;;;;4966486;28;20249;-67
2022/07/27 12:48:11;;;;;;;5.57;2.45;;;23.40;96.90;;;;;;4966605;28;20191;-68
2022/07/27 12:50:39;;;;;;;3.58;1.58;;;23.50;96.70;;;;;;4968424;28;20166;-68
2022/07/27 12:53:05;;;;;;;4.10;1.23;;;23.20;96.70;;;;;;4973178;28;20218;-68